EST,Max TemperatureF,Mean TemperatureF,Min TemperatureF,Max Dew PointF,MeanDew PointF,Min DewpointF,Max Humidity, Mean Humidity, Min Humidity, Max Sea Level PressureIn, Mean Sea Level PressureIn, Min Sea Level PressureIn, Max VisibilityMiles, Mean VisibilityMiles, Min VisibilityMiles, Max Wind SpeedMPH, Mean Wind SpeedMPH, Max Gust SpeedMPH,PrecipitationIn, CloudCover, Events, WindDirDegrees
2014-1-1,84,80,75,75,73,71,94,84,74,30.15,30.09,30.04,10,10,10,18,9,24,0.01,4,Rain,102
2014-1-2,85,78,71,73,71,70,100,83,65,30.04,29.98,29.92,10,10,9,15,6,23,T,0,,173
2014-1-3,73,69,65,72,59,43,93,66,39,30.15,30.05,29.94,10,10,9,21,12,30,0.01,5,,8
2014-1-4,74,70,66,72,67,61,93,83,73,30.14,30.08,30.03,10,10,4,16,11,24,0.13,7,Rain,64
2014-1-5,83,77,71,75,72,70,100,87,74,30.06,30.01,29.94,10,10,7,17,5,27,0.12,3,Rain-Thunderstorm,168
2014-1-6,83,71,59,75,70,56,100,87,74,30.17,30.06,29.99,10,10,7,23,7,34,0.04,3,Rain,338
2014-1-7,61,57,53,51,46,37,80,63,46,30.29,30.23,30.17,10,10,10,24,17,33,T,8,Rain,15
2014-1-8,68,62,56,68,63,52,100,90,80,30.24,30.18,30.13,10,9,3,21,15,26,0.10,8,Rain,43
2014-1-9,78,73,68,72,70,68,100,90,79,30.21,30.15,30.10,10,10,9,15,7,20,0.04,4,Rain,50
2014-1-10,83,77,70,73,71,67,97,86,74,30.15,30.09,30.04,10,10,10,12,6,17,T,1,Rain,103
2014-1-11,84,78,71,73,72,70,94,82,69,30.12,30.06,30.01,10,10,8,12,5,18,T,1,Rain,158
2014-1-12,76,74,71,72,69,66,100,87,74,30.15,30.10,30.06,10,8,2,13,5,16,0.00,3,,21
2014-1-13,82,77,72,71,70,68,93,81,69,30.14,30.08,30.04,10,10,10,12,7,17,0.00,1,,115
2014-1-14,84,77,70,72,69,66,90,76,61,30.06,30.00,29.97,10,10,9,10,6,17,0.00,0,,193
2014-1-15,77,72,66,70,63,55,93,81,68,30.06,30.00,29.95,10,10,10,18,9,26,T,6,,317
2014-1-16,69,63,56,59,49,38,78,63,47,30.17,30.09,29.99,10,10,10,24,14,32,T,3,,337
2014-1-17,62,57,52,42,35,28,64,48,32,30.23,30.16,30.12,10,10,10,15,9,19,0.00,0,,355
2014-1-18,69,65,60,55,47,32,68,52,35,30.24,30.19,30.15,10,10,10,14,8,21,0.00,0,,341
2014-1-19,63,59,54,53,48,40,86,71,55,30.29,30.22,30.18,10,10,9,13,6,18,0.00,0,,343
2014-1-20,77,66,54,57,55,50,93,70,46,30.19,30.14,30.08,10,10,10,7,2,10,0.00,2,,276
2014-1-21,76,68,60,65,62,55,100,82,64,30.07,29.99,29.95,10,8,2,15,4,20,0.33,6,Rain,315
2014-1-22,67,63,58,63,53,46,93,77,60,30.18,30.08,29.94,10,10,10,20,11,28,0.00,2,,332
2014-1-23,68,61,54,58,50,42,78,63,48,30.27,30.21,30.16,10,10,10,16,11,22,0.00,0,,31
2014-1-24,70,65,59,59,56,53,84,71,57,30.33,30.25,30.20,10,10,10,20,13,27,0.00,1,,31
2014-1-25,77,68,59,63,60,54,93,79,64,30.19,30.13,30.06,10,10,10,15,7,21,0.00,0,,33
2014-1-26,80,72,63,66,62,57,93,77,60,30.08,30.04,29.99,10,10,10,10,5,15,0.00,1,,80
2014-1-27,82,74,66,69,67,64,93,80,67,30.04,30.00,29.97,10,10,10,9,4,12,0.00,0,,159
2014-1-28,81,73,65,71,68,64,97,83,69,30.09,30.03,29.99,10,10,10,9,4,11,0.00,1,,51
2014-1-29,83,76,68,75,70,65,93,85,76,30.06,30.01,29.98,10,9,1,17,7,24,1.34,6,Rain-Thunderstorm,13
2014-1-30,70,68,65,70,68,65,100,95,90,30.10,30.04,30.01,10,9,3,17,10,22,0.69,8,Rain,35
2014-1-31,83,76,69,74,71,69,100,87,74,30.07,30.02,29.99,10,9,2,12,4,15,0.48,4,Rain-Thunderstorm,83